Time;durP1;ratioP1;P1;durP2;ratioP2;P2;SDS_P1;SDS_P2;PMS_P1;PMS_P2;Temp;Humidity;BMP_temperature;BMP_pressure;BME280_temperature;BME280_humidity;BME280_pressure;Samples;Min_cycle;Max_cycle;Signal;HPM_P1;HPM_P2
2021/09/30 00:01:25;;;;;;;2.28;1.50;;;18.00;48.70;;;;;;5073316;28;20226;-54
2021/09/30 00:03:56;;;;;;;2.75;1.52;;;18.10;48.70;;;;;;5072885;28;20242;-48
2021/09/30 00:06:26;;;;;;;4.10;2.08;;;18.10;48.70;;;;;;5072829;28;20261;-54
2021/09/30 00:08:58;;;;;;;3.45;1.50;;;18.10;48.70;;;;;;5073279;28;20262;-51
2021/09/30 00:11:31;;;;;;;2.20;1.42;;;18.20;48.70;;;;;;5072245;28;20230;-53
2021/09/30 00:14:07;;;;;;;2.42;1.30;;;18.20;48.70;;;;;;5073169;28;20195;-51
2021/09/30 00:33:34;;;;;;;1.77;1.23;;;18.40;48.60;;;;;;5092654;28;20189;-54
2021/09/30 00:36:11;;;;;;;2.42;1.55;;;18.40;48.60;;;;;;5092795;28;20193;-52
2021/09/30 00:41:52;;;;;;;2.58;1.50;;;18.50;48.60;;;;;;5036070;28;20681;-46
2021/09/30 00:47:17;;;;;;;2.13;1.48;;;18.50;48.60;;;;;;5072403;28;21054;-48
2021/09/30 00:50:02;;;;;;;2.10;1.48;;;18.50;48.70;;;;;;5070764;28;20214;-53
2021/09/30 00:52:37;;;;;;;1.90;1.40;;;18.60;48.70;;;;;;5072052;28;20675;-48
2021/09/30 01:57:59;;;;;;;1.67;1.10;;;19.40;48.10;;;;;;5091625;28;20188;-55
2021/09/30 02:20:30;;;;;;;2.38;1.35;;;19.70;47.70;;;;;;5078709;28;20343;-52
2021/09/30 02:26:14;;;;;;;2.17;1.17;;;19.80;47.60;;;;;;5059856;28;20202;-49
2021/09/30 02:28:52;;;;;;;2.03;1.38;;;19.80;47.40;;;;;;5070016;28;20219;-48
2021/09/30 02:40:21;;;;;;;2.17;1.20;;;20.00;46.90;;;;;;5070545;28;20575;-49
2021/09/30 02:59:37;;;;;;;1.40;1.30;;;20.20;46.60;;;;;;5073314;28;20238;-48
2021/09/30 03:02:07;;;;;;;1.75;1.25;;;20.30;47.00;;;;;;5087836;28;20237;-51
2021/09/30 03:04:38;;;;;;;1.80;1.25;;;20.30;46.30;;;;;;5090761;28;20209;-48
2021/09/30 03:07:10;;;;;;;1.75;1.27;;;20.40;46.10;;;;;;5086310;28;20257;-49
2021/09/30 03:09:42;;;;;;;1.95;1.20;;;20.40;46.10;;;;;;5070466;28;20250;-49
2021/09/30 03:12:18;;;;;;;3.20;0.90;;;20.40;46.00;;;;;;5072021;28;20203;-50
2021/09/30 03:14:59;;;;;;;1.67;1.08;;;20.50;45.80;;;;;;5073960;28;20198;-52
2021/09/30 03:17:42;;;;;;;2.47;1.25;;;20.50;45.60;;;;;;5074208;28;20244;-48
2021/09/30 03:20:41;;;;;;;1.58;1.05;;;20.50;45.60;;;;;;5074132;28;20323;-49
2021/09/30 03:23:13;;;;;;;2.17;1.30;;;20.50;46.10;;;;;;5074181;28;20206;-49
2021/09/30 03:25:46;;;;;;;2.63;1.27;;;20.60;45.30;;;;;;5073964;28;20237;-49
2021/09/30 03:28:17;;;;;;;1.17;0.93;;;20.60;45.30;;;;;;5073640;28;20218;-52
2021/09/30 03:30:48;;;;;;;1.63;1.10;;;20.70;45.40;;;;;;5073818;28;20224;-51
2021/09/30 03:33:18;;;;;;;1.60;0.90;;;20.70;45.30;;;;;;5073296;28;20222;-53
2021/09/30 03:35:48;;;;;;;1.48;0.98;;;20.70;45.30;;;;;;5073247;28;20234;-49
2021/09/30 03:38:21;;;;;;;1.38;1.15;;;20.70;45.50;;;;;;5076073;28;20286;-46
2021/09/30 03:40:51;;;;;;;2.17;1.15;;;20.80;45.50;;;;;;5094236;28;20230;-53
2021/09/30 03:43:22;;;;;;;1.45;0.90;;;20.80;45.50;;;;;;5094165;28;20194;-50
2021/09/30 03:45:52;;;;;;;1.60;0.93;;;20.80;45.50;;;;;;5089428;28;20218;-46
2021/09/30 03:48:23;;;;;;;1.40;1.05;;;20.90;45.60;;;;;;5073213;28;20331;-52
2021/09/30 03:51:04;;;;;;;2.75;1.00;;;20.90;45.60;;;;;;5073869;28;20191;-52
2021/09/30 03:53:49;;;;;;;2.35;1.10;;;20.90;45.40;;;;;;5073893;28;20277;-54
2021/09/30 03:56:35;;;;;;;1.88;1.10;;;21.00;45.10;;;;;;5073516;28;20669;-48
2021/09/30 04:01:57;;;;;;;2.20;1.00;;;21.00;44.90;;;;;;5069833;28;20340;-52
2021/09/30 04:04:30;;;;;;;1.30;0.90;;;21.00;44.90;;;;;;5073200;28;20206;-50
2021/09/30 04:07:02;;;;;;;2.50;0.90;;;21.10;44.70;;;;;;5072933;28;20732;-47
2021/09/30 04:09:35;;;;;;;2.42;0.93;;;21.10;44.40;;;;;;5072417;28;20211;-49
2021/09/30 04:12:07;;;;;;;1.25;0.77;;;21.10;44.50;;;;;;5072981;28;20190;-51
2021/09/30 04:14:38;;;;;;;2.03;1.08;;;21.10;44.50;;;;;;5072674;28;20237;-52
2021/09/30 04:17:08;;;;;;;1.83;1.10;;;21.20;44.60;;;;;;5091796;28;20234;-48
2021/09/30 04:19:39;;;;;;;0.70;0.65;;;21.20;44.70;;;;;;5093499;28;20355;-47
2021/09/30 04:22:09;;;;;;;1.33;0.80;;;21.20;44.80;;;;;;5093442;28;20240;-50
2021/09/30 04:24:44;;;;;;;1.00;0.73;;;21.20;44.70;;;;;;5093419;28;20237;-53
2021/09/30 04:27:14;;;;;;;1.15;0.90;;;21.30;44.70;;;;;;5093339;28;20685;-52
2021/09/30 04:29:45;;;;;;;2.47;0.85;;;21.30;44.60;;;;;;5093333;28;20260;-55
2021/09/30 04:32:15;;;;;;;1.98;0.73;;;21.30;44.30;;;;;;5093315;28;20233;-52
2021/09/30 04:34:46;;;;;;;1.65;0.90;;;21.30;44.20;;;;;;5092946;28;20191;-48
2021/09/30 04:37:16;;;;;;;1.55;0.80;;;21.30;44.10;;;;;;5090418;28;20245;-51
2021/09/30 04:39:50;;;;;;;1.15;1.00;;;21.40;44.10;;;;;;5071118;28;20254;-51
2021/09/30 04:42:21;;;;;;;2.45;1.00;;;21.30;44.00;;;;;;5072803;28;20252;-49
2021/09/30 04:44:51;;;;;;;1.92;0.70;;;21.30;43.90;;;;;;5073005;28;20202;-53
2021/09/30 04:47:23;;;;;;;1.70;0.90;;;21.40;43.90;;;;;;5072338;28;20558;-47
2021/09/30 04:49:53;;;;;;;1.40;1.00;;;21.40;43.80;;;;;;5072248;28;20644;-48
2021/09/30 04:52:23;;;;;;;2.97;1.10;;;21.40;43.80;;;;;;5072141;28;20666;-54
2021/09/30 04:54:56;;;;;;;1.10;0.80;;;21.40;43.60;;;;;;5072134;28;20697;-48
2021/09/30 04:57:27;;;;;;;1.77;0.80;;;21.40;43.70;;;;;;5072184;28;20198;-54
2021/09/30 04:59:58;;;;;;;0.80;0.70;;;21.40;43.70;;;;;;5071724;28;20214;-53
2021/09/30 05:02:28;;;;;;;1.75;0.80;;;21.40;43.70;;;;;;5072063;28;20195;-55
2021/09/30 05:04:59;;;;;;;1.02;0.73;;;21.40;43.70;;;;;;5071820;28;20292;-47
2021/09/30 05:07:29;;;;;;;1.73;0.90;;;21.50;43.80;;;;;;5078205;28;20245;-49
2021/09/30 05:10:03;;;;;;;1.50;0.65;;;21.40;43.70;;;;;;5092229;28;20299;-50
2021/09/30 05:12:34;;;;;;;1.27;0.70;;;21.40;43.60;;;;;;5092888;28;20199;-50
2021/09/30 05:15:04;;;;;;;1.13;0.80;;;21.50;43.60;;;;;;5092441;28;20198;-49
2021/09/30 05:17:35;;;;;;;2.03;0.90;;;21.50;43.50;;;;;;5092262;28;20229;-54
2021/09/30 05:20:05;;;;;;;1.08;0.80;;;21.50;43.60;;;;;;5092413;28;20301;-46
2021/09/30 05:22:36;;;;;;;2.10;0.90;;;21.50;43.60;;;;;;5092344;28;20237;-55
2021/09/30 05:25:09;;;;;;;1.52;0.77;;;21.50;43.40;;;;;;5092156;28;20225;-50
2021/09/30 05:27:39;;;;;;;1.77;0.90;;;21.50;43.50;;;;;;5092026;28;20264;-45
2021/09/30 05:30:10;;;;;;;3.00;0.90;;;21.40;43.50;;;;;;5092156;28;20218;-53
2021/09/30 05:32:41;;;;;;;1.35;0.90;;;21.50;43.60;;;;;;5091978;28;20245;-48
2021/09/30 05:35:12;;;;;;;0.93;0.80;;;21.40;43.40;;;;;;5091582;28;20245;-46
2021/09/30 05:37:42;;;;;;;1.40;0.82;;;21.50;43.60;;;;;;5085582;28;20285;-50
2021/09/30 05:40:16;;;;;;;1.30;0.80;;;21.50;43.50;;;;;;5071602;28;20261;-47
2021/09/30 05:42:46;;;;;;;2.03;0.70;;;21.50;43.60;;;;;;5071827;28;20385;-50
2021/09/30 05:45:17;;;;;;;1.27;0.70;;;21.50;43.80;;;;;;5071584;28;20556;-46
2021/09/30 05:47:47;;;;;;;1.08;0.60;;;21.40;43.70;;;;;;5071155;28;20225;-49
2021/09/30 05:50:18;;;;;;;2.13;0.93;;;21.50;43.80;;;;;;5071485;28;20262;-46
2021/09/30 05:52:49;;;;;;;1.17;0.68;;;21.40;43.60;;;;;;5071263;28;20222;-46
2021/09/30 05:55:21;;;;;;;1.38;0.73;;;21.40;43.50;;;;;;5073540;28;20186;-50
2021/09/30 05:57:51;;;;;;;2.63;1.10;;;21.40;43.40;;;;;;5071398;28;20242;-49
2021/09/30 06:00:26;;;;;;;2.42;0.90;;;21.40;43.30;;;;;;5071640;28;20258;-51
2021/09/30 06:11:57;;;;;;;1.13;1.00;;;21.30;43.00;;;;;;5071447;28;20213;-54
2021/09/30 06:14:29;;;;;;;2.45;1.00;;;21.30;43.00;;;;;;5088606;28;20186;-51
2021/09/30 06:17:00;;;;;;;1.67;0.88;;;21.30;43.10;;;;;;5091410;28;20194;-48
2021/09/30 06:19:31;;;;;;;1.80;0.85;;;21.30;43.10;;;;;;5091038;28;20256;-46
2021/09/30 06:22:04;;;;;;;2.08;0.90;;;21.20;43.20;;;;;;5091325;28;20285;-49
2021/09/30 06:24:34;;;;;;;1.85;1.10;;;21.20;43.30;;;;;;5091147;28;20194;-46
2021/09/30 06:27:07;;;;;;;2.22;1.05;;;21.20;43.40;;;;;;5091241;28;20230;-53
2021/09/30 06:29:37;;;;;;;1.13;0.80;;;21.20;43.40;;;;;;5090883;28;20253;-51
2021/09/30 06:32:08;;;;;;;3.03;1.10;;;21.10;43.40;;;;;;5091229;28;20712;-49
2021/09/30 06:34:41;;;;;;;1.52;0.90;;;21.10;43.50;;;;;;5091616;28;20692;-52
2021/09/30 06:37:11;;;;;;;1.27;1.00;;;21.10;43.40;;;;;;5089240;28;20194;-50
2021/09/30 06:39:42;;;;;;;2.17;1.15;;;21.10;43.40;;;;;;5070337;28;20226;-48
2021/09/30 06:42:14;;;;;;;2.70;1.20;;;21.00;43.40;;;;;;5070911;28;20286;-48
2021/09/30 06:44:44;;;;;;;2.08;1.15;;;21.00;43.40;;;;;;5071069;28;20222;-47
2021/09/30 06:47:15;;;;;;;1.88;1.25;;;21.00;43.40;;;;;;5072086;28;20231;-47
2021/09/30 06:49:45;;;;;;;1.83;1.30;;;21.00;43.50;;;;;;5074082;28;20258;-48
2021/09/30 06:52:16;;;;;;;1.88;1.45;;;21.00;43.50;;;;;;5074383;28;20230;-53
2021/09/30 06:54:46;;;;;;;1.67;1.13;;;21.00;43.50;;;;;;5074374;28;20230;-42
2021/09/30 06:57:19;;;;;;;2.80;1.48;;;20.90;43.60;;;;;;5074443;28;20226;-51
2021/09/30 06:59:49;;;;;;;1.95;1.60;;;20.90;43.50;;;;;;5074294;28;20222;-44
2021/09/30 07:02:22;;;;;;;2.10;1.40;;;20.90;43.70;;;;;;5074605;28;20268;-48
2021/09/30 07:04:52;;;;;;;3.15;1.70;;;20.80;43.70;;;;;;5091606;28;20281;-48
2021/09/30 07:07:23;;;;;;;3.55;1.70;;;20.80;43.80;;;;;;5091223;28;20241;-45
2021/09/30 07:09:55;;;;;;;3.30;1.75;;;20.80;43.90;;;;;;5074101;28;20231;-48
2021/09/30 07:12:27;;;;;;;3.92;1.70;;;20.80;44.00;;;;;;5074933;28;20627;-48
2021/09/30 07:14:57;;;;;;;4.97;2.20;;;20.70;44.00;;;;;;5074266;28;20269;-46
2021/09/30 07:17:28;;;;;;;3.60;1.75;;;20.70;44.10;;;;;;5073719;28;20713;-48
2021/09/30 07:19:59;;;;;;;4.57;1.88;;;20.70;44.10;;;;;;5073873;28;20686;-48
2021/09/30 07:22:29;;;;;;;3.13;1.90;;;20.70;44.10;;;;;;5074175;28;20580;-47
2021/09/30 07:24:59;;;;;;;2.83;1.80;;;20.60;44.10;;;;;;5072987;28;20631;-49
2021/09/30 07:27:32;;;;;;;3.50;2.10;;;20.60;44.10;;;;;;5073403;28;20226;-47
2021/09/30 07:30:02;;;;;;;2.60;1.88;;;20.60;44.10;;;;;;5073142;28;20663;-46
2021/09/30 07:32:33;;;;;;;2.25;1.60;;;20.50;44.10;;;;;;5073511;28;20607;-46
2021/09/30 07:35:03;;;;;;;2.63;1.63;;;20.50;44.10;;;;;;5073253;28;20297;-46
2021/09/30 07:37:33;;;;;;;2.83;1.73;;;20.50;44.20;;;;;;5073499;28;20306;-49
2021/09/30 07:40:04;;;;;;;1.95;1.63;;;20.40;44.20;;;;;;5073562;28;20227;-46
2021/09/30 07:42:36;;;;;;;4.75;2.05;;;20.40;44.20;;;;;;5073834;28;20234;-46
2021/09/30 07:45:07;;;;;;;2.25;1.70;;;20.40;44.30;;;;;;5073839;28;20234;-52
2021/09/30 07:47:38;;;;;;;2.70;1.60;;;20.30;44.30;;;;;;5089043;28;20607;-46
2021/09/30 07:50:08;;;;;;;4.50;1.85;;;20.30;44.30;;;;;;5093360;28;20309;-50
2021/09/30 07:52:39;;;;;;;3.45;2.00;;;20.30;44.40;;;;;;5093363;28;20704;-45
2021/09/30 07:55:10;;;;;;;2.60;1.60;;;20.20;44.40;;;;;;5093623;28;20198;-47
2021/09/30 07:57:42;;;;;;;2.22;1.48;;;20.20;44.50;;;;;;5093500;28;20198;-44
2021/09/30 08:00:13;;;;;;;2.70;1.90;;;20.20;44.50;;;;;;5093493;28;20258;-48
2021/09/30 08:02:43;;;;;;;2.60;1.58;;;20.20;44.60;;;;;;5093365;28;20673;-46
2021/09/30 08:05:14;;;;;;;2.72;1.70;;;20.10;44.50;;;;;;5093208;28;20645;-48
2021/09/30 08:07:47;;;;;;;3.67;1.80;;;20.10;44.50;;;;;;5086902;28;20303;-49
2021/09/30 08:10:17;;;;;;;2.05;1.48;;;20.10;44.50;;;;;;5073479;28;20321;-49
2021/09/30 08:12:49;;;;;;;2.28;1.83;;;20.00;44.50;;;;;;5073404;28;20234;-48
2021/09/30 08:15:20;;;;;;;2.28;1.38;;;20.00;44.50;;;;;;5072875;28;20562;-47
2021/09/30 08:17:50;;;;;;;2.40;1.70;;;19.90;44.60;;;;;;5072482;28;20229;-45
2021/09/30 08:20:22;;;;;;;1.95;1.50;;;19.90;44.60;;;;;;5077861;28;20253;-47
2021/09/30 08:22:53;;;;;;;3.20;1.55;;;19.90;44.60;;;;;;5092812;28;20220;-50
2021/09/30 08:25:24;;;;;;;2.38;1.75;;;19.80;44.60;;;;;;5092931;28;20239;-46
2021/09/30 08:27:56;;;;;;;2.67;1.60;;;19.80;44.60;;;;;;5093336;28;20234;-48
2021/09/30 08:30:27;;;;;;;2.10;1.25;;;19.80;44.70;;;;;;5093156;28;20262;-46
2021/09/30 08:32:58;;;;;;;1.95;1.42;;;19.70;44.60;;;;;;5092975;28;20194;-45
2021/09/30 08:35:28;;;;;;;3.05;1.65;;;19.70;44.70;;;;;;5092852;28;20233;-48
2021/09/30 08:37:59;;;;;;;1.55;1.30;;;19.70;44.80;;;;;;5084520;28;20238;-45
2021/09/30 08:40:29;;;;;;;2.33;1.58;;;19.70;44.80;;;;;;5072472;28;20258;-47
2021/09/30 08:43:02;;;;;;;1.65;1.33;;;19.60;44.80;;;;;;5072590;28;20198;-51
2021/09/30 08:45:32;;;;;;;2.28;1.30;;;19.60;44.80;;;;;;5072346;28;20606;-47
2021/09/30 08:48:03;;;;;;;2.92;1.60;;;19.60;44.80;;;;;;5067288;28;20629;-46
2021/09/30 08:50:38;;;;;;;2.63;1.58;;;19.60;44.80;;;;;;5069743;28;20294;-48
2021/09/30 08:53:10;;;;;;;3.05;1.80;;;19.50;44.80;;;;;;5071346;28;20201;-49
2021/09/30 08:55:41;;;;;;;2.20;1.52;;;19.50;44.80;;;;;;5071300;28;20199;-51
2021/09/30 08:58:13;;;;;;;1.70;1.42;;;19.50;45.00;;;;;;5080670;28;20198;-52
2021/09/30 09:00:44;;;;;;;1.33;1.23;;;19.40;44.90;;;;;;5090457;28;20291;-47
2021/09/30 09:03:15;;;;;;;1.90;1.33;;;19.40;44.90;;;;;;5073942;28;20287;-46
2021/09/30 09:05:45;;;;;;;2.13;1.48;;;19.40;44.90;;;;;;5070733;28;20234;-50
2021/09/30 09:08:16;;;;;;;2.10;1.33;;;19.40;45.00;;;;;;5080917;28;20233;-49
2021/09/30 09:10:46;;;;;;;2.22;1.30;;;19.30;45.00;;;;;;5090680;28;20654;-49
2021/09/30 09:13:21;;;;;;;2.55;1.58;;;19.30;45.00;;;;;;5092015;28;20619;-48
2021/09/30 09:15:54;;;;;;;3.20;1.50;;;19.30;45.10;;;;;;5087091;28;20221;-45
2021/09/30 09:18:25;;;;;;;2.95;1.20;;;19.20;45.00;;;;;;5069239;28;20194;-50
2021/09/30 09:21:10;;;;;;;2.55;1.60;;;19.20;45.00;;;;;;5070928;28;20248;-45
2021/09/30 09:23:43;;;;;;;2.78;1.58;;;19.20;45.00;;;;;;5070282;28;20195;-50
2021/09/30 09:26:15;;;;;;;2.42;1.30;;;19.20;45.70;;;;;;5070419;28;20234;-49
2021/09/30 09:29:05;;;;;;;2.25;1.35;;;19.20;45.10;;;;;;5085188;28;20265;-51
2021/09/30 09:31:36;;;;;;;2.63;1.48;;;19.10;45.10;;;;;;5090851;28;20222;-52
2021/09/30 09:34:20;;;;;;;2.45;1.65;;;19.10;45.10;;;;;;5091207;28;20233;-52
2021/09/30 09:36:51;;;;;;;2.22;1.38;;;19.00;45.10;;;;;;5091143;28;20194;-49
2021/09/30 09:39:23;;;;;;;2.25;1.30;;;19.00;45.10;;;;;;5070395;28;20231;-49
2021/09/30 09:41:54;;;;;;;1.98;1.33;;;19.00;45.10;;;;;;5069768;28;20278;-48
2021/09/30 09:44:26;;;;;;;2.92;1.50;;;19.00;45.20;;;;;;5070158;28;20285;-46
2021/09/30 09:46:56;;;;;;;2.78;1.50;;;18.90;45.20;;;;;;5071101;28;20206;-50
2021/09/30 09:49:27;;;;;;;3.20;1.48;;;18.90;45.20;;;;;;5064866;28;20266;-48
2021/09/30 09:51:57;;;;;;;2.63;1.40;;;18.90;45.20;;;;;;5068733;28;20648;-47
2021/09/30 09:54:29;;;;;;;3.38;1.63;;;18.80;45.30;;;;;;5070604;28;20234;-51
2021/09/30 09:56:59;;;;;;;1.80;1.23;;;18.80;45.40;;;;;;5070642;28;20191;-48
2021/09/30 09:59:40;;;;;;;3.05;1.60;;;18.80;45.40;;;;;;5068777;28;20302;-51
2021/09/30 10:02:11;;;;;;;2.40;1.30;;;18.80;45.50;;;;;;5069879;28;20201;-45
2021/09/30 10:04:43;;;;;;;3.03;1.75;;;18.70;45.40;;;;;;5069532;28;20294;-50
2021/09/30 10:07:13;;;;;;;2.90;1.60;;;18.70;45.50;;;;;;5070166;28;20647;-47
2021/09/30 10:09:44;;;;;;;4.47;1.75;;;18.70;45.50;;;;;;5090147;28;20319;-50
2021/09/30 10:12:14;;;;;;;2.15;1.67;;;18.70;45.50;;;;;;5079887;22;20256;-51
2021/09/30 10:14:47;;;;;;;3.08;2.00;;;18.60;46.00;;;;;;4973348;28;20240;-48
2021/09/30 10:17:17;;;;;;;3.38;1.80;;;18.60;45.40;;;;;;4974620;28;20315;-48
2021/09/30 10:19:48;;;;;;;3.67;1.70;;;18.60;45.50;;;;;;4990585;28;20222;-48
2021/09/30 10:22:18;;;;;;;4.47;2.10;;;18.60;45.50;;;;;;4993954;28;20237;-49
2021/09/30 10:24:49;;;;;;;4.35;1.77;;;18.50;45.50;;;;;;4995465;28;20240;-49
2021/09/30 10:27:19;;;;;;;4.05;2.17;;;18.50;45.50;;;;;;4995173;28;20251;-48
2021/09/30 10:29:53;;;;;;;3.58;1.98;;;18.50;45.50;;;;;;4992337;28;20319;-49
2021/09/30 10:32:24;;;;;;;2.65;1.63;;;18.40;45.50;;;;;;4995654;28;20209;-51
2021/09/30 10:34:59;;;;;;;3.17;1.77;;;18.40;45.50;;;;;;4993253;28;20273;-48
2021/09/30 10:37:31;;;;;;;3.60;1.77;;;18.40;45.60;;;;;;4991648;28;20200;-52
2021/09/30 10:40:19;;;;;;;3.75;1.77;;;18.40;45.60;;;;;;4974559;28;20222;-49
2021/09/30 10:42:53;;;;;;;3.78;1.92;;;18.30;45.60;;;;;;4975039;28;20202;-49
2021/09/30 10:45:26;;;;;;;3.13;2.00;;;18.30;45.60;;;;;;4974985;28;20198;-49
2021/09/30 10:48:06;;;;;;;2.75;1.63;;;18.30;45.60;;;;;;4981863;28;20276;-49
2021/09/30 10:50:47;;;;;;;2.88;1.55;;;18.20;45.60;;;;;;4980313;28;20578;-48
2021/09/30 10:53:18;;;;;;;2.95;1.77;;;18.20;45.70;;;;;;4975467;28;20237;-48
2021/09/30 10:55:48;;;;;;;4.20;1.60;;;18.20;45.60;;;;;;4975557;28;20249;-48
2021/09/30 10:58:25;;;;;;;2.70;1.60;;;18.20;45.70;;;;;;4984448;28;20232;-49
2021/09/30 11:01:00;;;;;;;2.85;1.45;;;18.20;45.70;;;;;;4994168;28;20232;-48
2021/09/30 11:03:31;;;;;;;3.33;1.80;;;18.10;45.70;;;;;;4990204;28;20569;-48
2021/09/30 11:06:23;;;;;;;2.50;1.73;;;18.10;45.70;;;;;;4974658;28;20256;-48
2021/09/30 11:09:16;;;;;;;3.95;1.73;;;18.10;45.80;;;;;;4988067;28;20685;-48
2021/09/30 11:11:47;;;;;;;3.00;1.50;;;18.00;45.80;;;;;;4989020;23;20205;-53
2021/09/30 11:14:24;;;;;;;2.13;1.58;;;18.00;45.80;;;;;;4992405;28;20340;-55
2021/09/30 11:16:58;;;;;;;1.92;1.30;;;18.00;45.80;;;;;;4988902;28;20284;-56
2021/09/30 11:19:40;;;;;;;2.50;1.50;;;17.90;45.80;;;;;;4974191;28;20253;-56
2021/09/30 11:22:11;;;;;;;2.90;1.50;;;17.90;45.90;;;;;;4974939;28;20643;-57
2021/09/30 11:24:53;;;;;;;2.35;1.60;;;17.90;45.90;;;;;;4977274;28;20240;-56
2021/09/30 11:27:30;;;;;;;2.25;1.70;;;17.80;45.80;;;;;;4992258;28;20593;-57
2021/09/30 11:30:23;;;;;;;2.78;1.55;;;17.80;45.80;;;;;;4993424;28;20232;-57
2021/09/30 11:32:59;;;;;;;2.40;1.25;;;17.80;45.90;;;;;;4993627;28;20197;-56
2021/09/30 11:35:30;;;;;;;2.45;1.60;;;17.80;46.00;;;;;;4993686;28;20205;-48
2021/09/30 11:38:01;;;;;;;2.63;1.42;;;17.80;45.90;;;;;;4992957;28;20202;-57
2021/09/30 11:40:31;;;;;;;2.78;1.60;;;17.70;45.90;;;;;;4993769;28;20293;-55
2021/09/30 11:43:02;;;;;;;2.72;1.52;;;17.70;46.00;;;;;;4991976;28;20281;-55
2021/09/30 11:45:34;;;;;;;2.00;1.02;;;17.70;46.00;;;;;;4992837;28;20190;-54
2021/09/30 11:48:09;;;;;;;3.05;1.48;;;17.60;46.00;;;;;;4987087;28;20201;-54
2021/09/30 11:50:39;;;;;;;2.05;1.45;;;17.60;46.10;;;;;;4990207;28;20299;-54
2021/09/30 11:53:11;;;;;;;2.55;1.73;;;17.60;46.10;;;;;;4993674;28;20241;-55
2021/09/30 11:55:44;;;;;;;2.22;1.40;;;17.60;46.10;;;;;;4993444;28;20201;-56
2021/09/30 11:58:15;;;;;;;2.20;1.27;;;17.60;46.10;;;;;;4994331;28;20681;-56
2021/09/30 12:00:49;;;;;;;2.28;1.60;;;17.50;46.00;;;;;;4993896;28;20206;-57
2021/09/30 12:03:22;;;;;;;2.90;1.30;;;17.50;46.10;;;;;;4994066;28;20240;-55
2021/09/30 12:05:56;;;;;;;3.10;1.50;;;17.50;46.10;;;;;;4994361;28;20242;-55
2021/09/30 12:08:27;;;;;;;2.17;1.15;;;17.50;46.20;;;;;;4994215;28;20221;-57
2021/09/30 12:11:04;;;;;;;1.88;1.40;;;17.40;46.10;;;;;;4993928;28;20654;-57
2021/09/30 12:13:35;;;;;;;2.22;1.20;;;17.40;46.10;;;;;;5019542;23;20243;-48
2021/09/30 12:16:08;;;;;;;2.70;1.48;;;17.40;46.10;;;;;;5012917;28;20225;-49
2021/09/30 12:18:40;;;;;;;2.08;1.48;;;17.40;46.20;;;;;;5012577;28;20767;-46
2021/09/30 12:21:10;;;;;;;2.85;1.27;;;17.40;46.20;;;;;;5012217;28;20708;-47
2021/09/30 12:23:41;;;;;;;1.92;1.33;;;17.40;46.20;;;;;;5012098;28;20273;-49
2021/09/30 12:26:11;;;;;;;1.75;1.35;;;17.30;46.20;;;;;;5012008;28;20699;-48
2021/09/30 12:28:42;;;;;;;2.78;1.30;;;17.30;46.20;;;;;;5011717;28;20248;-47
2021/09/30 12:31:16;;;;;;;2.33;1.38;;;17.30;46.20;;;;;;5011703;28;20255;-49
2021/09/30 12:33:49;;;;;;;3.22;1.60;;;17.20;46.20;;;;;;5009508;28;20279;-47
2021/09/30 12:36:19;;;;;;;2.58;1.42;;;17.20;46.20;;;;;;5011934;28;20225;-48
2021/09/30 12:39:01;;;;;;;4.38;1.80;;;17.20;46.30;;;;;;5012692;28;20247;-47
2021/09/30 12:41:32;;;;;;;2.03;1.55;;;17.20;46.30;;;;;;5012656;28;20754;-45
2021/09/30 12:44:13;;;;;;;4.10;1.80;;;17.10;46.30;;;;;;5012294;28;20201;-48
2021/09/30 12:46:44;;;;;;;2.83;1.85;;;17.10;46.30;;;;;;5012590;28;20197;-47
2021/09/30 12:49:16;;;;;;;1.30;1.02;;;17.10;46.30;;;;;;5013046;28;20308;-47
2021/09/30 12:51:47;;;;;;;1.45;1.27;;;17.00;46.30;;;;;;5012993;28;20263;-50
2021/09/30 12:54:26;;;;;;;2.65;1.63;;;17.00;46.30;;;;;;5012926;28;20522;-47
2021/09/30 12:57:00;;;;;;;2.17;1.30;;;17.00;46.30;;;;;;5012549;28;20196;-48
2021/09/30 12:59:30;;;;;;;2.42;1.58;;;17.00;46.30;;;;;;5012146;28;20263;-51
2021/09/30 13:02:06;;;;;;;2.63;1.63;;;17.00;46.40;;;;;;5012449;28;20232;-43
2021/09/30 13:04:45;;;;;;;2.63;1.30;;;16.90;46.30;;;;;;5012719;28;20232;-48
2021/09/30 13:07:18;;;;;;;2.55;1.58;;;16.90;46.40;;;;;;5012185;28;20228;-45
2021/09/30 13:09:48;;;;;;;3.45;1.52;;;16.90;46.40;;;;;;5012501;28;20221;-47
2021/09/30 13:12:20;;;;;;;2.03;1.23;;;16.90;46.40;;;;;;5012628;28;20251;-48
2021/09/30 13:14:50;;;;;;;2.60;1.40;;;16.90;46.40;;;;;;5012085;28;20337;-46
2021/09/30 13:17:21;;;;;;;3.20;1.50;;;16.90;46.40;;;;;;5011723;28;20222;-48
2021/09/30 13:19:53;;;;;;;3.00;1.55;;;16.80;46.40;;;;;;5011786;28;20301;-47
2021/09/30 13:22:24;;;;;;;1.95;1.25;;;16.80;46.40;;;;;;5012346;28;20224;-49
2021/09/30 13:24:54;;;;;;;1.90;1.35;;;16.80;46.40;;;;;;5012323;28;20244;-46
2021/09/30 13:27:26;;;;;;;2.78;1.38;;;16.80;46.50;;;;;;5012329;28;20238;-49
2021/09/30 13:29:57;;;;;;;2.35;1.30;;;16.70;46.40;;;;;;5011517;28;20216;-49
2021/09/30 13:32:27;;;;;;;2.72;1.20;;;16.70;46.40;;;;;;5011770;28;20228;-47
2021/09/30 13:35:00;;;;;;;2.63;1.40;;;16.70;46.50;;;;;;5012424;28;20232;-48
2021/09/30 13:37:30;;;;;;;1.95;1.40;;;16.70;46.50;;;;;;5012339;28;20631;-49
2021/09/30 13:40:01;;;;;;;2.13;1.27;;;16.70;46.50;;;;;;5012173;28;20725;-45
2021/09/30 13:42:32;;;;;;;2.13;1.35;;;16.70;46.50;;;;;;5011886;28;20200;-44
2021/09/30 13:45:03;;;;;;;2.45;1.50;;;16.60;46.50;;;;;;5011687;28;20231;-50
2021/09/30 13:47:33;;;;;;;1.98;1.65;;;16.60;46.90;;;;;;5012076;28;20232;-45
2021/09/30 13:50:06;;;;;;;3.22;1.65;;;16.60;46.60;;;;;;5011768;28;20671;-47
2021/09/30 13:52:37;;;;;;;4.05;1.50;;;16.60;46.60;;;;;;5011973;28;20617;-48
2021/09/30 13:55:08;;;;;;;2.88;1.38;;;16.50;46.50;;;;;;5011695;28;20626;-48
2021/09/30 13:57:38;;;;;;;3.28;1.35;;;16.50;46.60;;;;;;5011430;28;20203;-48
2021/09/30 14:00:10;;;;;;;2.25;1.58;;;16.50;46.60;;;;;;5012041;28;20255;-48
2021/09/30 14:02:40;;;;;;;3.05;1.67;;;16.50;46.60;;;;;;5012063;28;20209;-46
2021/09/30 14:05:13;;;;;;;2.53;1.58;;;16.50;46.60;;;;;;5012143;28;20247;-47
2021/09/30 14:07:47;;;;;;;2.35;1.45;;;16.40;46.60;;;;;;5011742;28;20299;-47
2021/09/30 14:10:18;;;;;;;2.17;1.38;;;16.40;46.60;;;;;;5011593;28;20264;-44
2021/09/30 14:12:49;;;;;;;3.67;1.50;;;16.40;46.60;;;;;;5011762;28;20240;-46
2021/09/30 14:15:20;;;;;;;2.40;1.50;;;16.40;46.70;;;;;;5011468;28;20649;-48
2021/09/30 14:17:50;;;;;;;1.95;1.20;;;16.40;46.70;;;;;;5011446;28;20236;-45
2021/09/30 14:20:22;;;;;;;1.92;1.42;;;16.40;46.70;;;;;;5011623;28;20271;-50
2021/09/30 14:22:53;;;;;;;2.13;1.58;;;16.30;46.70;;;;;;5011511;28;20236;-45
2021/09/30 14:25:23;;;;;;;2.28;1.40;;;16.30;46.70;;;;;;5011220;28;20193;-46
2021/09/30 14:27:54;;;;;;;2.28;1.30;;;16.30;46.70;;;;;;5011070;28;20243;-48
2021/09/30 14:30:24;;;;;;;2.30;1.33;;;16.30;46.70;;;;;;5010488;28;20324;-46
2021/09/30 14:32:54;;;;;;;1.58;1.10;;;16.30;46.80;;;;;;5011779;28;20280;-49
2021/09/30 14:35:27;;;;;;;2.13;1.35;;;16.30;46.80;;;;;;5011397;28;20240;-48
2021/09/30 14:37:57;;;;;;;1.75;1.20;;;16.20;46.70;;;;;;5011320;28;20621;-44
2021/09/30 14:40:28;;;;;;;2.70;1.42;;;16.20;46.70;;;;;;5011191;28;20651;-49
2021/09/30 14:42:58;;;;;;;1.92;1.20;;;16.20;46.70;;;;;;5010919;28;20240;-44
2021/09/30 14:45:29;;;;;;;2.90;1.65;;;16.20;46.70;;;;;;5011614;28;20240;-48
2021/09/30 14:47:59;;;;;;;3.35;1.50;;;16.20;46.80;;;;;;5011433;28;20240;-48
2021/09/30 14:50:31;;;;;;;2.78;1.50;;;16.20;46.80;;;;;;5011158;28;20332;-49
2021/09/30 14:53:02;;;;;;;2.75;1.30;;;16.20;46.80;;;;;;5011167;28;20243;-49
2021/09/30 14:55:32;;;;;;;2.30;1.48;;;16.10;46.80;;;;;;5010456;28;20228;-50
2021/09/30 14:58:03;;;;;;;2.22;1.20;;;16.10;46.80;;;;;;5010570;28;20236;-44
2021/09/30 15:00:33;;;;;;;1.85;1.02;;;16.10;46.80;;;;;;5011125;28;20233;-44
2021/09/30 15:03:05;;;;;;;1.92;1.33;;;16.10;46.80;;;;;;5011406;28;20684;-45
2021/09/30 15:05:37;;;;;;;2.47;1.60;;;16.10;46.80;;;;;;5011071;28;20638;-44
2021/09/30 15:08:08;;;;;;;2.22;1.33;;;16.10;46.90;;;;;;5012230;28;20236;-46
2021/09/30 15:10:38;;;;;;;2.00;1.20;;;16.10;46.90;;;;;;5014856;28;20260;-52
2021/09/30 15:13:09;;;;;;;1.52;1.20;;;16.00;46.90;;;;;;5014535;28;20290;-47
2021/09/30 15:15:39;;;;;;;1.65;1.40;;;16.00;46.90;;;;;;5014833;28;20683;-47
2021/09/30 15:18:11;;;;;;;2.08;1.50;;;16.00;46.90;;;;;;5014465;28;20413;-46
2021/09/30 15:23:29;;;;;;;2.85;1.40;;;16.00;46.90;;;;;;5014665;28;20275;-44
2021/09/30 15:26:00;;;;;;;1.75;1.20;;;16.00;46.90;;;;;;5014024;28;20228;-43
2021/09/30 15:28:31;;;;;;;1.60;1.38;;;16.00;46.90;;;;;;5013988;28;20259;-45
2021/09/30 15:31:01;;;;;;;2.63;1.30;;;16.00;46.90;;;;;;5014188;28;20216;-44
2021/09/30 15:33:31;;;;;;;2.53;1.48;;;15.90;46.90;;;;;;5014504;28;20228;-50
2021/09/30 15:36:04;;;;;;;2.90;1.40;;;15.90;46.90;;;;;;5013581;28;20236;-47
2021/09/30 15:38:34;;;;;;;2.38;1.20;;;15.90;46.90;;;;;;5013939;28;20308;-49
2021/09/30 15:41:05;;;;;;;2.47;1.40;;;15.90;46.90;;;;;;5014321;28;20284;-49
2021/09/30 15:43:35;;;;;;;2.15;1.40;;;15.90;46.90;;;;;;5014242;28;20235;-49